Waskish, Minnesota
Current Conditions -  °F | °C
As of 3:11 PM on Wednesday 26 Nov 2014 (Local Time) from KVWU Reporting Station
Clear Clear  
Wind Chill:   Ceiling: Unl
Heat Index:   Visibility: 10mi
Dew Point: -6°   Wind: 0mph
Humidity: 66%   Direction: NA
Pressure: 30.36"   Gusts: NA
Location:  48.16°N, 94.51°W
Report Text: KVWU 262111Z AUTO 00000KT 10SM CLR M16/M21 A3036 RMK AO2
Loading
Personal Weather Stations






























Interactive Weather Map New forecast layout! Learn more

10-Day Weather Forecast

Advertisements
Track Severe Weather on mobile